createdAt,value
2022-10-31T00:01:29.123Z,4.27
2022-10-31T00:03:57.460Z,5.33
2022-10-31T00:06:26.820Z,5.80
2022-10-31T00:09:02.350Z,6.57
2022-10-31T00:11:31.731Z,5.37
2022-10-31T00:14:00.469Z,1.90
2022-10-31T00:16:29.041Z,2.57
2022-10-31T00:19:02.182Z,2.90
2022-10-31T00:21:30.822Z,3.80
2022-10-31T00:24:00.192Z,3.40
2022-10-31T00:26:29.392Z,2.80
2022-10-31T00:28:58.800Z,3.57
2022-10-31T00:31:28.978Z,3.90
2022-10-31T00:33:57.254Z,2.47
2022-10-31T00:36:28.421Z,3.23
2022-10-31T00:38:59.185Z,3.57
2022-10-31T00:41:29.383Z,2.67
2022-10-31T00:43:59.209Z,4.77
2022-10-31T00:46:27.470Z,2.40
2022-10-31T00:48:55.987Z,3.50
2022-10-31T00:51:25.560Z,2.07
2022-10-31T00:53:53.861Z,3.00
2022-10-31T00:56:22.254Z,3.23
2022-10-31T00:58:50.514Z,3.13
2022-10-31T01:01:18.933Z,3.73
2022-10-31T01:03:47.333Z,4.23
2022-10-31T01:06:16.062Z,2.97
2022-10-31T01:08:44.514Z,3.60
2022-10-31T01:11:16.771Z,3.57
2022-10-31T01:13:45.351Z,5.33
2022-10-31T01:16:17.686Z,5.80
2022-10-31T01:18:45.966Z,4.60
2022-10-31T01:21:16.778Z,3.33
2022-10-31T01:23:45.811Z,3.77
2022-10-31T01:26:16.528Z,4.73
2022-10-31T01:28:55.221Z,4.50
2022-10-31T01:31:25.450Z,5.80
2022-10-31T01:33:54.028Z,8.10
2022-10-31T01:36:24.551Z,4.77
2022-10-31T01:38:54.033Z,7.63
2022-10-31T01:41:23.918Z,2.93
2022-10-31T01:43:59.392Z,7.80
2022-10-31T01:46:36.022Z,6.50
2022-10-31T01:49:06.925Z,4.13
2022-10-31T01:51:37.648Z,4.70
2022-10-31T01:54:07.519Z,6.33
2022-10-31T01:56:37.549Z,2.87
2022-10-31T01:59:07.109Z,3.83
2022-10-31T02:01:35.650Z,4.13
2022-10-31T02:04:05.871Z,3.50
2022-10-31T02:06:36.505Z,3.43
2022-10-31T02:09:06.690Z,2.67
2022-10-31T02:11:36.346Z,4.70
2022-10-31T02:14:04.671Z,3.17
2022-10-31T02:16:33.889Z,4.70
2022-10-31T02:19:02.348Z,3.67
2022-10-31T02:21:40.854Z,2.83
2022-10-31T02:24:28.518Z,2.50
2022-10-31T02:27:04.111Z,2.43
2022-10-31T02:30:06.979Z,4.90
2022-10-31T02:33:02.311Z,2.20
2022-10-31T02:35:51.222Z,4.27
2022-10-31T02:38:48.565Z,4.33
2022-10-31T02:41:28.621Z,2.37
2022-10-31T02:44:31.706Z,2.43
2022-10-31T02:47:17.563Z,3.17
2022-10-31T02:49:57.296Z,2.77
2022-10-31T02:52:27.508Z,2.57
2022-10-31T02:55:34.985Z,3.13
2022-10-31T02:58:11.980Z,2.53
2022-10-31T03:00:52.193Z,3.13
2022-10-31T03:03:31.897Z,2.87
2022-10-31T03:06:06.086Z,2.60
2022-10-31T03:08:46.450Z,2.83
2022-10-31T03:11:15.321Z,3.23
2022-10-31T03:13:59.686Z,3.00
2022-10-31T03:16:53.381Z,2.77
2022-10-31T03:19:28.534Z,3.03
2022-10-31T03:21:59.422Z,2.73
2022-10-31T03:24:31.021Z,2.87
2022-10-31T03:27:01.090Z,2.90
2022-10-31T03:29:33.805Z,3.63
2022-10-31T03:32:05.269Z,2.47
2022-10-31T03:34:37.478Z,2.30
2022-10-31T03:37:08.561Z,2.83
2022-10-31T03:39:36.879Z,4.30
2022-10-31T03:42:15.610Z,2.80
2022-10-31T03:44:45.992Z,5.23
2022-10-31T03:47:14.229Z,4.20
2022-10-31T03:49:42.632Z,3.67
2022-10-31T03:52:27.942Z,6.80
2022-10-31T03:55:02.362Z,7.13
2022-10-31T03:58:09.850Z,5.03
2022-10-31T04:00:40.435Z,5.07
2022-10-31T04:03:12.974Z,6.17
2022-10-31T04:05:47.633Z,4.30
2022-10-31T04:08:18.505Z,4.57
2022-10-31T04:10:49.213Z,4.23
2022-10-31T04:13:20.713Z,5.07
2022-10-31T04:15:59.990Z,4.33
2022-10-31T04:18:28.413Z,5.20
2022-10-31T04:21:04.887Z,4.13
2022-10-31T04:23:33.671Z,3.87
2022-10-31T04:26:05.979Z,8.77
2022-10-31T04:28:34.996Z,6.97
2022-10-31T04:31:04.068Z,5.20
2022-10-31T04:33:33.070Z,7.07
2022-10-31T04:36:01.439Z,6.70
2022-10-31T04:38:29.757Z,6.60
2022-10-31T04:40:58.270Z,3.57
2022-10-31T04:43:50.559Z,5.13
2022-10-31T04:46:19.351Z,3.70
2022-10-31T04:48:48.240Z,5.53
2022-10-31T04:51:17.508Z,4.03
2022-10-31T04:53:46.062Z,5.80
2022-10-31T04:56:29.752Z,6.50
2022-10-31T04:59:01.432Z,5.10
2022-10-31T05:01:36.492Z,4.13
2022-10-31T05:04:05.493Z,4.60
2022-10-31T05:06:34.609Z,5.20
2022-10-31T05:09:03.670Z,4.97
2022-10-31T05:11:32.511Z,3.40
2022-10-31T05:14:11.139Z,3.53
2022-10-31T05:17:18.023Z,5.47
2022-10-31T05:20:13.156Z,3.67
2022-10-31T05:23:01.669Z,5.50
2022-10-31T05:25:30.353Z,7.20
2022-10-31T05:27:59.080Z,4.17
2022-10-31T05:30:29.696Z,4.57
2022-10-31T05:32:58.402Z,7.40
2022-10-31T05:35:45.613Z,7.50
2022-10-31T05:38:40.076Z,6.63
2022-10-31T05:41:17.845Z,8.07
2022-10-31T05:43:49.102Z,7.43
2022-10-31T05:46:20.784Z,8.67
2022-10-31T05:49:09.379Z,21.73
2022-10-31T05:51:56.200Z,10.03
2022-10-31T05:54:33.999Z,9.63
2022-10-31T05:57:02.363Z,11.67
2022-10-31T05:59:30.864Z,8.63
2022-10-31T06:02:00.085Z,7.03
2022-10-31T06:04:48.491Z,9.63
2022-10-31T06:07:16.994Z,6.63
2022-10-31T06:09:45.756Z,6.40
2022-10-31T06:12:14.234Z,8.77
2022-10-31T06:15:09.595Z,6.80
2022-10-31T06:17:38.091Z,9.43
2022-10-31T06:20:12.399Z,6.00
2022-10-31T06:22:53.562Z,6.67
2022-10-31T06:25:22.133Z,8.47
2022-10-31T06:27:51.520Z,7.60
2022-10-31T06:30:24.448Z,9.60
2022-10-31T06:32:52.939Z,7.50
2022-10-31T06:35:22.179Z,4.30
2022-10-31T06:37:56.120Z,7.28
2022-10-31T06:40:41.214Z,4.82
2022-10-31T06:43:27.972Z,7.25
2022-10-31T06:46:19.624Z,12.15
2022-10-31T06:49:00.731Z,6.82
2022-10-31T06:51:49.770Z,10.90
2022-10-31T06:54:18.786Z,9.32
2022-10-31T06:56:48.489Z,8.20
2022-10-31T06:59:18.210Z,14.07
2022-10-31T07:02:21.647Z,11.43
2022-10-31T07:04:51.455Z,11.30
2022-10-31T07:07:22.441Z,7.53
2022-10-31T07:09:52.309Z,5.32
2022-10-31T07:12:26.946Z,6.95
2022-10-31T07:15:00.369Z,8.35
2022-10-31T07:17:30.156Z,5.63
2022-10-31T07:20:01.715Z,7.80
2022-10-31T07:22:38.313Z,10.27
2022-10-31T07:25:11.258Z,10.65
2022-10-31T07:27:58.265Z,12.70
2022-10-31T07:30:27.152Z,8.20
2022-10-31T07:32:59.047Z,6.93
2022-10-31T07:35:44.661Z,6.90
2022-10-31T07:38:15.868Z,5.45
2022-10-31T07:40:50.182Z,4.88
2022-10-31T07:43:18.667Z,5.75
2022-10-31T07:46:15.298Z,3.72
2022-10-31T07:49:02.197Z,3.63
2022-10-31T07:51:49.373Z,3.17
2022-10-31T07:54:37.887Z,4.93
2022-10-31T07:57:10.317Z,6.05
2022-10-31T07:59:41.338Z,3.13
2022-10-31T08:02:10.179Z,3.65
2022-10-31T08:05:03.145Z,3.08
2022-10-31T08:07:32.135Z,3.40
2022-10-31T08:10:06.903Z,2.78
2022-10-31T08:12:36.797Z,3.90
2022-10-31T08:15:09.573Z,2.53
2022-10-31T08:17:44.105Z,3.70
2022-10-31T08:20:16.777Z,2.70
2022-10-31T08:22:56.108Z,2.60
2022-10-31T08:25:25.173Z,2.90
2022-10-31T08:27:55.660Z,2.78
2022-10-31T08:30:31.100Z,3.20
2022-10-31T08:33:23.050Z,2.28
2022-10-31T08:36:09.740Z,3.35
2022-10-31T08:39:04.121Z,2.70
2022-10-31T08:41:32.880Z,3.25
2022-10-31T08:44:02.633Z,2.17
2022-10-31T08:46:31.094Z,2.92
2022-10-31T08:49:00.260Z,3.58
2022-10-31T08:51:29.618Z,2.72
2022-10-31T08:53:59.664Z,2.83
2022-10-31T08:56:37.312Z,3.20
2022-10-31T08:59:13.854Z,4.72
2022-10-31T09:02:06.474Z,4.72
2022-10-31T09:04:35.930Z,4.22
2022-10-31T09:07:21.648Z,5.35
2022-10-31T09:09:51.252Z,2.83
2022-10-31T09:12:21.557Z,2.55
2022-10-31T09:15:10.342Z,2.83
2022-10-31T09:17:56.546Z,2.75
2022-10-31T09:20:31.024Z,2.17
2022-10-31T09:23:25.612Z,3.33
2022-10-31T09:25:55.534Z,2.15
2022-10-31T09:28:33.582Z,2.40
2022-10-31T09:31:11.103Z,2.40
2022-10-31T09:34:00.534Z,3.03
2022-10-31T09:36:39.377Z,3.58
2022-10-31T09:39:15.199Z,1.98
2022-10-31T09:42:02.083Z,1.55
2022-10-31T09:44:51.351Z,2.40
2022-10-31T09:47:48.339Z,1.13
2022-10-31T09:51:01.016Z,2.05
2022-10-31T09:53:49.410Z,1.30
2022-10-31T09:56:23.189Z,1.25
2022-10-31T09:58:57.097Z,0.80
2022-10-31T10:01:46.856Z,1.00
2022-10-31T10:04:37.193Z,0.82
2022-10-31T10:07:53.470Z,0.88
2022-10-31T10:10:45.719Z,1.20
2022-10-31T10:13:48.046Z,1.75
2022-10-31T10:16:40.964Z,1.13
2022-10-31T10:19:32.471Z,2.10
2022-10-31T10:22:42.384Z,1.52
2022-10-31T10:25:41.061Z,1.25
2022-10-31T10:28:21.598Z,1.35
2022-10-31T10:30:54.961Z,2.58
2022-10-31T10:33:52.589Z,1.05
2022-10-31T10:36:54.099Z,2.78
2022-10-31T10:39:25.854Z,1.48
2022-10-31T10:42:12.820Z,1.65
2022-10-31T10:45:18.289Z,1.10
2022-10-31T10:47:54.190Z,1.50
2022-10-31T10:50:28.376Z,2.03
2022-10-31T10:53:00.539Z,1.52
2022-10-31T10:55:32.402Z,1.33
2022-10-31T10:58:08.582Z,1.35
2022-10-31T11:00:41.586Z,1.10
2022-10-31T11:03:10.846Z,1.42
2022-10-31T11:05:43.694Z,0.80
2022-10-31T11:08:12.180Z,1.73
2022-10-31T11:10:40.621Z,1.00
2022-10-31T11:13:29.354Z,1.48
2022-10-31T11:16:01.221Z,1.67
2022-10-31T11:18:32.173Z,1.45
2022-10-31T11:21:03.956Z,1.60
2022-10-31T11:23:37.753Z,0.98
2022-10-31T11:26:07.845Z,1.15
2022-10-31T11:28:36.410Z,2.05
2022-10-31T11:31:18.352Z,1.20
2022-10-31T11:33:51.177Z,1.83
2022-10-31T11:36:27.381Z,1.38
2022-10-31T11:38:56.718Z,1.20
2022-10-31T11:41:34.211Z,0.95
2022-10-31T11:44:25.319Z,1.10
2022-10-31T11:46:54.793Z,0.75
2022-10-31T11:49:42.820Z,0.85
2022-10-31T11:52:25.207Z,1.35
2022-10-31T11:55:33.049Z,2.55
2022-10-31T11:58:01.766Z,0.93
2022-10-31T12:00:42.224Z,7.22
2022-10-31T12:03:31.640Z,1.42
2022-10-31T12:06:19.163Z,1.50
2022-10-31T12:08:48.108Z,1.00
2022-10-31T12:11:27.467Z,2.47
2022-10-31T12:14:11.821Z,1.98
2022-10-31T12:17:25.790Z,0.90
2022-10-31T12:19:56.144Z,1.00
2022-10-31T12:22:38.090Z,1.83
2022-10-31T12:25:18.207Z,0.68
2022-10-31T12:28:26.693Z,0.80
2022-10-31T12:31:09.833Z,2.55
2022-10-31T12:34:02.935Z,2.33
2022-10-31T12:37:00.229Z,0.93
2022-10-31T12:39:37.945Z,2.25
2022-10-31T12:42:28.001Z,1.38
2022-10-31T12:45:26.778Z,1.33
2022-10-31T12:48:02.392Z,1.48
2022-10-31T12:50:39.440Z,2.33
2022-10-31T12:53:29.656Z,1.60
2022-10-31T12:56:22.672Z,1.15
2022-10-31T12:59:22.950Z,0.80
2022-10-31T13:01:59.023Z,1.13
2022-10-31T13:04:57.419Z,0.70
2022-10-31T13:07:36.970Z,0.57
2022-10-31T13:10:16.949Z,0.80
2022-10-31T13:12:45.480Z,1.40
2022-10-31T13:15:20.173Z,0.80
2022-10-31T13:17:55.450Z,0.80
2022-10-31T13:20:43.969Z,0.95
2022-10-31T13:23:44.650Z,0.90
2022-10-31T13:26:40.299Z,6.60
2022-10-31T13:29:32.735Z,3.42
2022-10-31T13:32:02.218Z,1.35
2022-10-31T13:34:39.759Z,1.63
2022-10-31T13:37:23.346Z,10.25
2022-10-31T13:40:16.804Z,4.15
2022-10-31T13:43:17.087Z,0.88
2022-10-31T13:45:53.768Z,1.23
2022-10-31T13:48:42.433Z,1.55
2022-10-31T13:51:12.039Z,0.73
2022-10-31T13:54:07.574Z,2.30
2022-10-31T13:56:36.834Z,3.17
2022-10-31T13:59:16.113Z,2.10
2022-10-31T14:02:03.306Z,3.75
2022-10-31T14:04:45.288Z,0.90
2022-10-31T14:07:18.358Z,1.55
2022-10-31T14:09:56.559Z,2.90
2022-10-31T14:12:39.431Z,1.95
2022-10-31T14:15:20.789Z,0.70
2022-10-31T14:17:57.255Z,0.52
2022-10-31T14:20:54.771Z,0.68
2022-10-31T14:23:34.631Z,1.05
2022-10-31T14:26:27.764Z,0.52
2022-10-31T14:28:57.745Z,0.50
2022-10-31T14:31:38.859Z,1.23
2022-10-31T14:34:12.912Z,0.60
2022-10-31T14:36:50.060Z,0.68
2022-10-31T14:39:39.458Z,0.90
2022-10-31T14:42:34.287Z,1.83
2022-10-31T14:45:40.123Z,2.20
2022-10-31T14:48:22.528Z,1.17
2022-10-31T14:50:57.899Z,1.10
2022-10-31T14:53:43.712Z,0.90
2022-10-31T14:56:12.565Z,0.80
2022-10-31T14:58:45.535Z,1.35
2022-10-31T15:01:29.598Z,0.75
2022-10-31T15:04:29.179Z,3.47
2022-10-31T15:07:24.630Z,3.22
2022-10-31T15:10:04.540Z,2.45
2022-10-31T15:12:34.551Z,2.15
2022-10-31T15:15:16.591Z,1.27
2022-10-31T15:17:51.653Z,5.47
2022-10-31T15:20:22.600Z,2.40
2022-10-31T15:22:51.015Z,14.38
2022-10-31T15:25:25.891Z,25.55
2022-10-31T15:27:55.482Z,54.75
2022-10-31T15:30:31.171Z,36.70
2022-10-31T15:32:59.625Z,47.17
2022-10-31T15:35:33.545Z,5.55
2022-10-31T15:38:04.430Z,4.13
2022-10-31T15:40:33.116Z,2.17
2022-10-31T15:43:04.181Z,4.70
2022-10-31T15:45:32.597Z,1.60
2022-10-31T15:48:15.479Z,6.10
2022-10-31T15:50:50.219Z,4.72
2022-10-31T15:53:30.365Z,8.70
2022-10-31T15:56:03.847Z,11.55
2022-10-31T15:58:42.689Z,9.50
2022-10-31T16:01:34.673Z,10.95
2022-10-31T16:04:09.244Z,16.00
2022-10-31T16:06:38.953Z,19.20
2022-10-31T16:09:25.442Z,14.43
2022-10-31T16:11:54.006Z,10.45
2022-10-31T16:14:26.033Z,6.70
2022-10-31T16:16:57.718Z,7.68
2022-10-31T16:19:36.225Z,8.50
2022-10-31T16:22:10.032Z,6.65
2022-10-31T16:24:47.674Z,5.78
2022-10-31T16:27:30.462Z,7.50
2022-10-31T16:30:02.892Z,15.18
2022-10-31T16:32:37.561Z,19.80
2022-10-31T16:35:14.035Z,19.23
2022-10-31T16:37:43.495Z,28.70
2022-10-31T16:40:14.878Z,17.83
2022-10-31T16:42:44.905Z,15.25
2022-10-31T16:45:23.571Z,31.53
2022-10-31T16:47:54.610Z,41.57
2022-10-31T16:50:32.037Z,28.40
2022-10-31T16:53:13.361Z,21.57
2022-10-31T16:56:04.787Z,16.50
2022-10-31T16:58:35.406Z,17.50
2022-10-31T17:01:06.752Z,18.55
2022-10-31T17:03:37.537Z,23.58
2022-10-31T17:06:07.521Z,19.77
2022-10-31T17:08:36.653Z,22.77
2022-10-31T17:11:05.224Z,23.37
2022-10-31T17:13:35.018Z,20.20
2022-10-31T17:16:03.946Z,17.90
2022-10-31T17:18:33.741Z,7.03
2022-10-31T17:21:04.759Z,6.80
2022-10-31T17:23:33.680Z,5.67
2022-10-31T17:26:02.079Z,5.53
2022-10-31T17:28:30.720Z,4.87
2022-10-31T17:30:59.668Z,7.13
2022-10-31T17:33:29.380Z,6.70
2022-10-31T17:35:57.965Z,4.47
2022-10-31T17:38:32.009Z,6.67
2022-10-31T17:41:00.362Z,10.67
2022-10-31T17:43:32.431Z,6.93
2022-10-31T17:46:02.372Z,7.47
2022-10-31T17:48:35.067Z,3.90
2022-10-31T17:51:06.919Z,4.17
2022-10-31T17:53:37.256Z,4.90
2022-10-31T17:56:07.109Z,4.63
2022-10-31T17:58:36.938Z,5.90
2022-10-31T18:01:11.296Z,9.83
2022-10-31T18:03:45.799Z,7.80
2022-10-31T18:06:17.693Z,5.07
2022-10-31T18:08:47.738Z,8.33
2022-10-31T18:11:18.433Z,4.50
2022-10-31T18:13:54.500Z,3.90
2022-10-31T18:16:24.789Z,3.70
2022-10-31T18:18:54.844Z,2.73
2022-10-31T18:21:23.376Z,2.77
2022-10-31T18:23:59.841Z,4.37
2022-10-31T18:26:28.535Z,3.13
2022-10-31T18:28:58.883Z,4.70
2022-10-31T18:31:27.912Z,5.37
2022-10-31T18:33:56.832Z,7.03
2022-10-31T18:36:25.654Z,6.23
2022-10-31T18:38:55.732Z,4.60
2022-10-31T18:41:24.720Z,6.83
2022-10-31T18:43:57.124Z,9.03
2022-10-31T18:46:25.960Z,8.57
2022-10-31T18:48:54.599Z,7.67
2022-10-31T18:51:23.099Z,10.43
2022-10-31T18:53:58.918Z,5.83
2022-10-31T18:56:28.072Z,7.07
2022-10-31T18:58:56.639Z,5.80
2022-10-31T19:01:25.444Z,6.43
2022-10-31T19:03:55.520Z,5.67
2022-10-31T19:06:28.483Z,4.77
2022-10-31T19:09:01.685Z,5.00
2022-10-31T19:11:32.702Z,5.70
2022-10-31T19:14:01.359Z,4.20
2022-10-31T19:16:30.595Z,5.50
2022-10-31T19:19:00.285Z,4.80
2022-10-31T19:21:28.819Z,4.37
2022-10-31T19:23:59.298Z,5.33
2022-10-31T19:26:29.581Z,4.77
2022-10-31T19:29:02.332Z,5.10
2022-10-31T19:31:32.260Z,8.93
2022-10-31T19:34:01.920Z,7.77
2022-10-31T19:36:31.361Z,5.80
2022-10-31T19:39:02.582Z,7.43
2022-10-31T19:41:31.825Z,5.43
2022-10-31T19:44:03.815Z,6.47
2022-10-31T19:46:52.136Z,7.10
2022-10-31T19:49:24.232Z,3.07
2022-10-31T19:51:54.892Z,5.37
2022-10-31T19:54:24.632Z,5.63
2022-10-31T19:56:56.683Z,2.93
2022-10-31T19:59:28.540Z,3.93
2022-10-31T20:01:57.145Z,3.33
2022-10-31T20:04:26.161Z,3.07
2022-10-31T20:06:55.103Z,2.40
2022-10-31T20:09:23.631Z,2.93
2022-10-31T20:11:52.628Z,2.57
2022-10-31T20:14:22.383Z,3.43
2022-10-31T20:16:50.931Z,5.93
2022-10-31T20:19:19.605Z,6.60
2022-10-31T20:21:49.473Z,4.00
2022-10-31T20:24:18.859Z,2.83
2022-10-31T20:26:47.543Z,6.17
2022-10-31T20:29:16.632Z,4.20
2022-10-31T20:31:46.623Z,3.70
2022-10-31T20:34:15.673Z,4.17
2022-10-31T20:36:45.111Z,2.03
2022-10-31T20:39:13.689Z,1.43
2022-10-31T20:41:42.298Z,2.90
2022-10-31T20:44:10.618Z,1.40
2022-10-31T20:46:39.110Z,2.27
2022-10-31T20:49:08.852Z,7.60
2022-10-31T20:51:37.371Z,4.53
2022-10-31T20:54:07.091Z,3.83
2022-10-31T20:56:35.980Z,5.77
2022-10-31T20:59:05.036Z,1.73
2022-10-31T21:01:36.098Z,1.33
2022-10-31T21:04:06.638Z,3.13
2022-10-31T21:06:35.599Z,1.93
2022-10-31T21:09:04.607Z,3.00
2022-10-31T21:11:33.078Z,2.10
2022-10-31T21:14:01.661Z,1.83
2022-10-31T21:16:31.553Z,2.10
2022-10-31T21:19:00.610Z,1.80
2022-10-31T21:21:34.762Z,2.63
2022-10-31T21:24:06.303Z,2.57
2022-10-31T21:26:37.127Z,5.23
2022-10-31T21:29:05.757Z,5.00
2022-10-31T21:31:35.631Z,2.30
2022-10-31T21:34:04.261Z,2.03
2022-10-31T21:36:32.710Z,3.57
2022-10-31T21:39:01.240Z,2.63
2022-10-31T21:41:29.655Z,3.53
2022-10-31T21:43:58.590Z,3.17
2022-10-31T21:46:28.916Z,1.67
2022-10-31T21:48:57.457Z,2.83
2022-10-31T21:51:27.583Z,2.33
2022-10-31T21:54:14.873Z,1.77
2022-10-31T21:56:43.400Z,6.50
2022-10-31T21:59:11.916Z,3.70
2022-10-31T22:01:40.451Z,3.30
2022-10-31T22:04:08.861Z,4.43
2022-10-31T22:06:37.275Z,6.93
2022-10-31T22:09:06.944Z,4.10
2022-10-31T22:11:35.608Z,7.13
2022-10-31T22:14:04.334Z,4.53
2022-10-31T22:16:34.939Z,6.87
2022-10-31T22:19:05.899Z,5.77
2022-10-31T22:21:47.729Z,5.90
2022-10-31T22:24:16.878Z,8.90
2022-10-31T22:26:45.276Z,5.77
2022-10-31T22:29:15.922Z,8.63
2022-10-31T22:31:46.291Z,4.43
2022-10-31T22:34:15.542Z,5.33
2022-10-31T22:36:44.191Z,4.60
2022-10-31T22:39:13.714Z,4.47
2022-10-31T22:41:42.202Z,4.83
2022-10-31T22:44:10.593Z,3.70
2022-10-31T22:46:39.540Z,3.93
2022-10-31T22:49:10.812Z,3.20
2022-10-31T22:51:40.034Z,2.03
2022-10-31T22:54:10.316Z,2.40
2022-10-31T22:56:39.272Z,1.70
2022-10-31T22:59:08.565Z,1.70
2022-10-31T23:01:37.577Z,2.67
2022-10-31T23:04:06.180Z,1.40
2022-10-31T23:06:34.605Z,5.10
2022-10-31T23:09:04.143Z,2.87
2022-10-31T23:11:34.770Z,2.67
2022-10-31T23:14:14.275Z,4.20
2022-10-31T23:16:47.916Z,1.73
2022-10-31T23:19:22.977Z,4.23
2022-10-31T23:21:57.588Z,2.70
2022-10-31T23:24:39.488Z,1.43
2022-10-31T23:27:11.519Z,1.57
2022-10-31T23:29:44.075Z,1.67
2022-10-31T23:32:29.394Z,1.63
2022-10-31T23:35:01.213Z,1.60
2022-10-31T23:37:30.935Z,1.90
2022-10-31T23:39:59.859Z,2.33
2022-10-31T23:42:28.377Z,4.20
2022-10-31T23:44:56.852Z,3.00
2022-10-31T23:47:25.231Z,3.33
2022-10-31T23:49:54.772Z,3.20
2022-10-31T23:52:23.111Z,3.00
2022-10-31T23:54:51.427Z,4.17
2022-10-31T23:57:20.475Z,2.73
2022-10-31T23:59:48.762Z,2.63
